Aviation Digital Data Service (ADDS)

Output produced by METARs form (0641 UTC 17 April 2014)
found at http://aviationweather.gov/adds/metars/
 
KLCH 170553Z AUTO 11005KT 10SM CLR 12/09 A3010 RMK AO2 SLP201 T01170094 10161 20106 401830022 55002